M I D A S
Marine Information and Data Acquisition System
Tripno 450 of the Zeeleeuw from 2003-03-21 07:10:06 to 2003-03-21 13:16:12
Back to CruiseResearch ActivitiesStationsMapUnderway DataData graphs

EquipmentUnitsComment
TimeDGPSUTC
LatitudeDGPSDM.mWGS84
LongitudeDGPSDM.mWGS84
HeadingGyrodeg 
SOGDGPSknotsSpeed over ground
COGDGPSdegCourse over ground
DepthEcho soundermeters200 kHz
Missing or incorrect values are displayed as -999
Navigation data collected by the RV Zeeleeuw from 2003-03-21 07:10:06 to 2003-03-21 13:16:12
Time Latitude Longitude Heading SOG COG Depth
2003-03-21 07:11:12 51°13.599 2°56.107 111.9 0.1 180 6.8
2003-03-21 07:12:12 51°13.607 2°56.079 109.5 3 288 -999
2003-03-21 07:13:12 51°13.627 2°55.967 116.4 4.9 293 -999
2003-03-21 07:14:12 51°13.667 2°55.84 117.3 5.2 296 -999
2003-03-21 07:15:11 51°13.689 2°55.732 101.6 3 283 9.7
2003-03-21 07:16:12 51°13.696 2°55.718 50.9 1.1 39 9.8
2003-03-21 07:17:12 51°13.734 2°55.712 345 3.1 338 8.6
2003-03-21 07:18:11 51°13.803 2°55.649 337.9 6.2 331 8.8
2003-03-21 07:19:12 51°13.907 2°55.574 340.5 7.1 335 8.6
2003-03-21 07:20:11 51°14.016 2°55.498 341 7.5 336 8.4
2003-03-21 07:21:11 51°14.125 2°55.421 340.7 7.4 335 8.5
2003-03-21 07:22:12 51°14.235 2°55.31 325.8 7.6 321 8.6
2003-03-21 07:23:12 51°14.318 2°55.162 311.6 7.8 307 8.8
2003-03-21 07:24:12 51°14.396 2°54.968 315.5 9.1 307 9.4
2003-03-21 07:25:12 51°14.507 2°54.797 342.5 9 329 8.6
2003-03-21 07:26:12 51°14.645 2°54.791 25 8.1 13 8.1
2003-03-21 07:27:12 51°14.729 2°54.83 24.5 3.7 9 8
2003-03-21 07:28:12 51°14.779 2°54.814 7.3 2.8 337 7.9
2003-03-21 07:29:11 51°14.811 2°54.778 2.1 2.2 318 12.1
2003-03-21 07:30:11 51°14.855 2°54.74 7 5.8 348 12
2003-03-21 07:31:11 51°14.999 2°54.632 335.8 10.9 325 7.2
2003-03-21 07:32:12 51°15.165 2°54.464 337.7 12.1 328 10.1
2003-03-21 07:33:11 51°15.338 2°54.28 336.9 13 327 7.6
2003-03-21 07:34:12 51°15.521 2°54.064 333.5 13 318 8.3
2003-03-21 07:35:11 51°15.707 2°53.858 336.8 14 325 9.3
2003-03-21 07:36:11 51°15.899 2°53.646 337.3 14.1 326 9.9
2003-03-21 07:37:11 51°16.092 2°53.437 337.2 14 326 10.4
2003-03-21 07:38:12 51°16.288 2°53.226 337.4 14.1 326 10.7
2003-03-21 07:39:12 51°16.482 2°53.016 336.9 14.1 326 10.6
2003-03-21 07:40:12 51°16.678 2°52.809 337.1 14 326 9.5
2003-03-21 07:41:11 51°16.866 2°52.618 337.6 13.5 329 7.8
2003-03-21 07:42:11 51°17.058 2°52.435 339.6 13.4 330 8
2003-03-21 07:43:12 51°17.263 2°52.269 345.2 13.7 335 8.7
2003-03-21 07:44:12 51°17.479 2°52.176 0.1 13.4 349 8.9
2003-03-21 07:45:11 51°17.695 2°52.131 3.1 13.3 354 8.7
2003-03-21 07:46:11 51°17.912 2°52.073 347.6 13.4 339 8.7
2003-03-21 07:47:11 51°18.093 2°51.855 320.8 14 312 9.1
2003-03-21 07:48:12 51°18.2 2°51.507 292 14.8 285 10.1
2003-03-21 07:49:12 51°18.22 2°51.111 276.6 15.1 270 11.2
2003-03-21 07:50:11 51°18.27 2°50.733 303.2 14.7 294 11.8
2003-03-21 07:51:12 51°18.441 2°50.471 340 13.9 328 12.8
2003-03-21 07:52:12 51°18.657 2°50.394 7.9 13.2 356 12.8
2003-03-21 07:53:12 51°18.877 2°50.382 9.9 13.2 358 12.5
2003-03-21 07:54:11 51°19.089 2°50.331 350.2 13.5 339 11.3
2003-03-21 07:55:12 51°19.252 2°50.064 303.4 14.7 293 9.7
2003-03-21 07:56:11 51°19.291 2°49.674 277.2 15.7 272 10.5
2003-03-21 07:57:11 51°19.285 2°49.259 271.4 15.6 266 11.9
2003-03-21 07:58:11 51°19.27 2°48.845 269.7 15.7 265 13.9
2003-03-21 07:59:12 51°19.304 2°48.437 299.6 15.1 290 16
2003-03-21 08:00:12 51°19.453 2°48.131 331.4 14.3 319 18.5
2003-03-21 08:01:11 51°19.658 2°48.009 0.1 13.2 348 20.4
2003-03-21 08:02:11 51°19.873 2°47.948 2 13.3 351 20.6
2003-03-21 08:03:11 51°20.094 2°47.881 355.3 13.5 345 20.3
2003-03-21 08:04:11 51°20.277 2°47.66 320.7 14.6 310 18.9
2003-03-21 08:05:12 51°20.381 2°47.289 292.6 15.3 285 17
2003-03-21 08:06:12 51°20.401 2°46.869 279 15.6 273 15.8
2003-03-21 08:07:11 51°20.41 2°46.47 277.3 15.5 272 15
2003-03-21 08:08:11 51°20.418 2°46.057 277.4 15.6 272 18.8
2003-03-21 08:09:11 51°20.405 2°45.645 269.8 15.4 265 20.7
2003-03-21 08:10:12 51°20.378 2°45.24 269.4 15.1 264 22.7
2003-03-21 08:11:11 51°20.334 2°44.847 253.1 15.4 251 23.3
2003-03-21 08:12:12 51°20.204 2°44.487 239.5 15.6 238 23.9
2003-03-21 08:13:11 51°20.074 2°44.14 242.2 15.4 240 23.8
2003-03-21 08:14:12 51°19.944 2°43.778 242.7 15.5 241 24.9
2003-03-21 08:15:11 51°19.819 2°43.424 243.3 15.6 241 23.4
2003-03-21 08:16:12 51°19.692 2°43.051 243.9 15.8 241 23.9
2003-03-21 08:17:11 51°19.568 2°42.694 243.8 15.6 241 23.1
2003-03-21 08:18:12 51°19.473 2°42.307 264.4 15.5 259 22.3
2003-03-21 08:19:12 51°19.491 2°41.903 293.5 15.3 284 20.5
2003-03-21 08:20:11 51°19.605 2°41.556 317 15 306 17.3
2003-03-21 08:21:11 51°19.758 2°41.239 319.5 15.1 308 15.6
2003-03-21 08:22:11 51°19.931 2°40.954 335.9 14.8 323 19.7
2003-03-21 08:23:11 51°20.137 2°40.759 343 14.4 330 25.3
2003-03-21 08:24:11 51°20.334 2°40.547 325.8 14.6 315 26.8
2003-03-21 08:25:11 51°20.437 2°40.193 285.2 14.5 279 25.6
2003-03-21 08:26:12 51°20.434 2°39.824 275 12.8 268 25.2
2003-03-21 08:27:12 51°20.423 2°39.565 272.2 8.6 265 24
2003-03-21 08:28:11 51°20.412 2°39.363 272.7 7.3 265 23.8
2003-03-21 08:29:12 51°20.401 2°39.182 272.4 6.6 264 22.6
2003-03-21 08:30:11 51°20.387 2°39.014 272.9 6.4 264 22.8
2003-03-21 08:31:11 51°20.376 2°38.846 272.1 6.4 263 21.1
2003-03-21 08:32:11 51°20.365 2°38.678 275.3 6.3 265 22.7
2003-03-21 08:33:11 51°20.356 2°38.511 274.8 6.4 265 21.9
2003-03-21 08:34:12 51°20.346 2°38.339 275.5 6.4 266 21.9
2003-03-21 08:35:11 51°20.337 2°38.173 275.4 6.4 265 21.9
2003-03-21 08:36:11 51°20.33 2°38.003 275.8 6.4 265 21.7
2003-03-21 08:37:11 51°20.319 2°37.833 274.9 6.4 265 21.3
2003-03-21 08:38:12 51°20.309 2°37.659 275.4 6.5 265 19.8
2003-03-21 08:39:10 51°20.3 2°37.492 275.8 6.5 265 19.6
2003-03-21 08:40:11 51°20.29 2°37.318 279.4 7.1 267 19.1
2003-03-21 08:41:11 51°20.378 2°37.048 322.9 13.8 310 20.5
2003-03-21 08:42:12 51°20.534 2°36.747 322.5 14.6 310 19.8
2003-03-21 08:43:11 51°20.682 2°36.449 312.7 14.7 303 18.7
2003-03-21 08:44:11 51°20.763 2°36.07 290.8 15.4 283 22.4
2003-03-21 08:45:12 51°20.81 2°35.659 289.4 15.4 281 24.5
2003-03-21 08:46:11 51°20.835 2°35.261 269.6 15.5 265 29.7
2003-03-21 08:47:12 51°20.763 2°34.855 254.3 15.7 251 29.2
2003-03-21 08:48:12 51°20.679 2°34.462 255.1 15.5 251 30.4
2003-03-21 08:49:12 51°20.599 2°34.062 256.4 15.8 253 29.4
2003-03-21 08:50:12 51°20.523 2°33.66 257.6 15.8 253 28.9
2003-03-21 08:51:11 51°20.446 2°33.26 256.9 15.9 252 28.8
2003-03-21 08:52:11 51°20.372 2°32.852 259.6 16.1 255 28.5
2003-03-21 08:53:12 51°20.264 2°32.453 242 16.1 240 28.8
2003-03-21 08:54:12 51°20.085 2°32.144 217.8 16 219 28.6
2003-03-21 08:55:12 51°19.853 2°31.972 193.6 15.3 198 28.6
2003-03-21 08:56:12 51°19.609 2°31.908 174.1 14.6 179 30
2003-03-21 08:57:12 51°19.376 2°31.984 157.4 14.4 164 28.5
2003-03-21 08:58:12 51°19.144 2°32.088 158.8 14.5 165 28.5
2003-03-21 08:59:12 51°18.911 2°32.182 161.6 14.6 167 28.4
2003-03-21 09:00:12 51°18.678 2°32.269 162 14.3 166 29.1
2003-03-21 09:01:12 51°18.444 2°32.35 163.5 14.3 168 25.8
2003-03-21 09:02:12 51°18.214 2°32.43 163.6 14.3 167 24.4
2003-03-21 09:03:12 51°17.979 2°32.499 163 14.3 169 23
2003-03-21 09:04:12 51°17.748 2°32.567 165.3 14.1 172 22.6
2003-03-21 09:05:12 51°17.505 2°32.536 191.6 15.1 195 24.2
2003-03-21 09:06:12 51°17.28 2°32.352 220.1 15.5 219 24.7
2003-03-21 09:07:12 51°17.121 2°32.036 239.2 15.5 235 24.4
2003-03-21 09:08:12 51°16.989 2°31.683 244.3 15.7 239 24.8
2003-03-21 09:09:12 51°16.863 2°31.322 248.9 15.5 243 25.9
2003-03-21 09:10:12 51°16.764 2°30.941 256.9 15.5 250 26.4
2003-03-21 09:11:12 51°16.673 2°30.546 255.6 15.9 249 26.1
2003-03-21 09:12:12 51°16.58 2°30.147 254.6 16 250 25.6
2003-03-21 09:13:12 51°16.485 2°29.749 254.4 16.1 248 25.9
2003-03-21 09:14:12 51°16.388 2°29.351 254.4 16.1 249 26.5
2003-03-21 09:15:12 51°16.291 2°28.95 253.5 16.2 248 26.2
2003-03-21 09:16:12 51°16.152 2°28.592 227.9 15.9 227 26.2
2003-03-21 09:17:12 51°15.927 2°28.388 196.9 15.5 201 26.3
2003-03-21 09:18:12 51°15.68 2°28.333 175.1 15.1 181 26.6
2003-03-21 09:19:12 51°15.429 2°28.34 172.2 15.1 178 26.3
2003-03-21 09:20:12 51°15.179 2°28.357 172.6 14.9 178 26.8
2003-03-21 09:21:12 51°14.929 2°28.367 172.7 15.1 178 26.7
2003-03-21 09:22:12 51°14.681 2°28.382 172.8 15.1 178 26.4
2003-03-21 09:23:12 51°14.43 2°28.373 187.3 15.5 190 25.6
2003-03-21 09:24:12 51°14.197 2°28.184 217.4 15.9 216 25.1
2003-03-21 09:25:12 51°14.005 2°27.898 232.7 15.8 229 24.7
2003-03-21 09:26:12 51°13.846 2°27.558 238.4 16.1 234 24
2003-03-21 09:27:12 51°13.693 2°27.213 239.5 15.9 235 24.2
2003-03-21 09:28:12 51°13.55 2°26.855 243.7 16.1 239 25.5
2003-03-21 09:29:12 51°13.414 2°26.487 244.9 16.2 240 24.7
2003-03-21 09:30:12 51°13.279 2°26.122 243.8 16 239 24.3
2003-03-21 09:31:12 51°13.144 2°25.756 243.4 16.1 239 25.2
2003-03-21 09:32:12 51°12.978 2°25.426 230 16 227 25.5
2003-03-21 09:33:12 51°12.764 2°25.172 209 15.9 210 25.6
2003-03-21 09:34:12 51°12.521 2°25.012 190.1 15.7 193 25.4
2003-03-21 09:35:12 51°12.265 2°24.958 183.3 15.4 187 24.3
2003-03-21 09:36:12 51°12.01 2°24.967 174.1 15.5 177 24.6
2003-03-21 09:37:12 51°11.756 2°24.977 173.7 15.2 178 23.3
2003-03-21 09:38:12 51°11.505 2°24.986 174.8 15 179 23.9
2003-03-21 09:39:12 51°11.256 2°24.99 176.3 15.1 180 23
2003-03-21 09:40:12 51°11.008 2°24.998 174.6 14.7 178 18.8
2003-03-21 09:41:12 51°10.794 2°25.122 146.4 13.4 151 10.4
2003-03-21 09:42:12 51°10.646 2°25.366 114.4 12.7 119 14.6
2003-03-21 09:43:12 51°10.635 2°25.676 77.6 11.7 77 15.9
2003-03-21 09:44:12 51°10.709 2°25.967 69.4 11.8 67 16.9
2003-03-21 09:45:12 51°10.778 2°26.259 72.8 11.8 71 17.9
2003-03-21 09:46:12 51°10.841 2°26.559 74.1 11.9 72 18.4
2003-03-21 09:47:12 51°10.904 2°26.861 75.2 12 72 19.5
2003-03-21 09:48:12 51°10.96 2°27.164 75.4 12 73 19.6
2003-03-21 09:49:12 51°11.013 2°27.468 76.1 12 74 19.7
2003-03-21 09:50:12 51°11.063 2°27.772 76.1 11.8 74 18.5
2003-03-21 09:51:12 51°11.111 2°28.076 76.6 11.9 75 18.9
2003-03-21 09:52:12 51°11.162 2°28.381 76.7 11.9 76 20.3
2003-03-21 09:53:12 51°11.209 2°28.689 77.5 11.9 77 18.9
2003-03-21 09:54:12 51°11.255 2°28.996 77 11.9 77 19.4
2003-03-21 09:55:12 51°11.296 2°29.303 76.9 11.9 77 19.4
2003-03-21 09:56:12 51°11.342 2°29.609 72 11.9 71 16.7
2003-03-21 09:57:12 51°11.411 2°29.903 69.5 11.8 69 16
2003-03-21 09:58:12 51°11.503 2°30.173 49.5 11.7 46 17.5
2003-03-21 09:59:12 51°11.663 2°30.351 38.8 11.7 32 19.4
2003-03-21 10:00:12 51°11.828 2°30.516 38.7 11.7 32 21.4
2003-03-21 10:01:12 51°11.994 2°30.68 38.8 11.7 32 21
2003-03-21 10:02:12 51°12.158 2°30.845 39.3 11.7 33 21
2003-03-21 10:03:12 51°12.332 2°30.98 29.8 11.8 21 21.2
2003-03-21 10:04:12 51°12.5 2°31.128 47.1 11.5 41 21.4
2003-03-21 10:05:12 51°12.612 2°31.373 61.9 11.5 60 21.7
2003-03-21 10:06:12 51°12.674 2°31.663 77.5 11.7 78 22.2
2003-03-21 10:07:12 51°12.706 2°31.968 78.7 11.7 79 22.2
2003-03-21 10:08:12 51°12.744 2°32.276 77.7 11.8 79 21.2
2003-03-21 10:09:12 51°12.786 2°32.586 77.2 12.1 77 21.6
2003-03-21 10:10:12 51°12.831 2°32.898 73 12 74 19
2003-03-21 10:11:12 51°12.93 2°33.175 56.3 11.9 53 17.3
2003-03-21 10:12:12 51°13.096 2°33.354 35.1 11.8 29 18.4
2003-03-21 10:13:12 51°13.275 2°33.51 35.6 12.3 29 21.2
2003-03-21 10:14:12 51°13.47 2°33.558 4.6 12.5 354 22.5
2003-03-21 10:15:12 51°13.679 2°33.492 359.8 12.8 348 22.1
2003-03-21 10:16:12 51°13.888 2°33.422 359.8 12.8 348 22.6
2003-03-21 10:17:12 51°14.093 2°33.348 0.1 12.6 347 23.7
2003-03-21 10:18:12 51°14.297 2°33.309 12.4 12.1 1 23.8
2003-03-21 10:19:12 51°14.495 2°33.341 18.6 11.9 7 23.8
2003-03-21 10:20:12 51°14.673 2°33.456 34.8 11.6 26 24.2
2003-03-21 10:21:12 51°14.848 2°33.589 34.1 11.7 25 24.2
2003-03-21 10:22:12 51°15.016 2°33.732 38.9 11.6 31 24.1
2003-03-21 10:23:12 51°15.173 2°33.909 45.9 11.5 39 24.2
2003-03-21 10:24:12 51°15.321 2°34.099 45.3 11.5 39 24.5
2003-03-21 10:25:11 51°15.424 2°34.344 71.7 11.3 70 25.1
2003-03-21 10:26:12 51°15.447 2°34.649 92.5 11.7 94 25.5
2003-03-21 10:27:12 51°15.379 2°34.949 116.7 12.5 121 25.3
2003-03-21 10:28:12 51°15.2 2°35.157 151.4 14 156 25.1
2003-03-21 10:29:12 51°14.963 2°35.224 170 14.7 173 21.1
2003-03-21 10:30:11 51°14.726 2°35.268 169.1 14.7 171 17.8
2003-03-21 10:31:12 51°14.488 2°35.334 166.2 14.4 168 18.1
2003-03-21 10:32:11 51°14.256 2°35.409 167.5 14.1 169 14.7
2003-03-21 10:33:12 51°14.02 2°35.479 168.1 14 168 12.2
2003-03-21 10:34:12 51°13.82 2°35.646 142.8 13.7 145 14.9
2003-03-21 10:35:12 51°13.679 2°35.902 116.2 12.6 118 17.9
2003-03-21 10:36:13 51°13.66 2°36.219 84.2 11.8 83 18.8
2003-03-21 10:37:12 51°13.713 2°36.517 71.8 11.9 69 18.9
2003-03-21 10:38:12 51°13.814 2°36.791 62.9 12 57 19.4
2003-03-21 10:39:12 51°13.926 2°37.063 63.1 12.2 58 19.3
2003-03-21 10:40:12 51°14.03 2°37.334 63.7 12 59 18.7
2003-03-21 10:41:12 51°14.093 2°37.633 80.6 12 79 19.5
2003-03-21 10:42:12 51°14.123 2°37.949 82 12.1 81 18.2
2003-03-21 10:43:12 51°14.15 2°38.272 88.3 12.4 88 17.2
2003-03-21 10:44:12 51°14.147 2°38.606 97.5 12.7 97 14.3
2003-03-21 10:45:12 51°14.093 2°38.935 105.2 12.9 106 11.3
2003-03-21 10:46:12 51°13.932 2°39.171 161.2 14.1 160 13.5
2003-03-21 10:47:12 51°13.706 2°39.08 210.4 14.7 208 13.5
2003-03-21 10:48:12 51°13.49 2°38.893 212.6 14.9 210 12.8
2003-03-21 10:49:12 51°13.278 2°38.685 215.2 15.3 213 13.5
2003-03-21 10:50:12 51°13.064 2°38.474 215 15.2 213 13.4
2003-03-21 10:51:12 51°12.85 2°38.262 214.4 15 212 12.8
2003-03-21 10:52:12 51°12.636 2°38.049 213.7 15.3 212 12.3
2003-03-21 10:53:12 51°12.42 2°37.834 215.1 15.3 213 12.1
2003-03-21 10:54:12 51°12.203 2°37.619 214.2 15.5 212 12
2003-03-21 10:55:12 51°11.987 2°37.404 213.9 15.3 212 11.8
2003-03-21 10:56:12 51°11.772 2°37.19 214.1 15.4 212 11.9
2003-03-21 10:57:12 51°11.557 2°36.978 214 15.3 211 12.1
2003-03-21 10:58:13 51°11.341 2°36.765 215.3 15.3 213 11.8
2003-03-21 10:59:12 51°11.13 2°36.557 213.3 15.2 211 11.5
2003-03-21 11:00:12 51°10.916 2°36.348 213.9 15.1 212 11
2003-03-21 11:01:12 51°10.703 2°36.136 213.7 14.9 211 10.4
2003-03-21 11:02:12 51°10.489 2°35.93 213.6 14.9 211 10.3
2003-03-21 11:03:12 51°10.276 2°35.725 214.1 14.9 211 10.1
2003-03-21 11:04:12 51°10.04 2°35.64 176.1 14.5 176 14.3
2003-03-21 11:05:12 51°9.81 2°35.729 158 14.2 160 18
2003-03-21 11:06:12 51°9.601 2°35.891 152.2 13.9 154 17.1
2003-03-21 11:07:12 51°9.397 2°36.058 145.4 13.7 148 15.5
2003-03-21 11:08:12 51°9.278 2°36.335 109.4 12.7 110 15.3
2003-03-21 11:09:12 51°9.296 2°36.655 74.4 12.1 72 14.6
2003-03-21 11:10:12 51°9.414 2°36.924 53.8 12.4 48 14.7
2003-03-21 11:11:12 51°9.561 2°37.148 47.3 12.5 41 15.5
2003-03-21 11:12:12 51°9.72 2°37.365 47.8 12.5 41 15.7
2003-03-21 11:13:12 51°9.875 2°37.583 48 12.5 42 16.2
2003-03-21 11:14:12 51°10.036 2°37.798 46.1 12.5 40 16.6
2003-03-21 11:15:12 51°10.195 2°38.009 45.7 12.5 40 16.5
2003-03-21 11:16:12 51°10.311 2°38.278 71 12.5 69 16
2003-03-21 11:17:12 51°10.244 2°38.577 126.7 13.2 130 15.6
2003-03-21 11:18:12 51°10.117 2°38.86 121.3 13.1 123 14.6
2003-03-21 11:19:12 51°9.998 2°39.155 121.9 13.3 124 12.6
2003-03-21 11:20:12 51°9.877 2°39.446 121.8 13.2 123 10.7
2003-03-21 11:21:12 51°9.76 2°39.74 118.3 13.1 119 9.7
2003-03-21 11:22:12 51°9.795 2°40.042 56.1 12 52 9.5
2003-03-21 11:23:12 51°9.964 2°40.236 37.8 12.7 32 10
2003-03-21 11:24:12 51°10.139 2°40.43 43.2 12.8 37 10.8
2003-03-21 11:25:12 51°10.316 2°40.618 38.5 12.9 33 11.6
2003-03-21 11:26:12 51°10.492 2°40.81 42.4 12.8 36 12.3
2003-03-21 11:27:12 51°10.663 2°41.01 43.2 12.7 37 12.4
2003-03-21 11:28:12 51°10.837 2°41.202 42.9 12.7 36 12.1
2003-03-21 11:29:12 51°10.914 2°41.502 84 12.6 83 12.2
2003-03-21 11:30:12 51°10.881 2°41.837 100.9 12.7 101 12.4
2003-03-21 11:31:12 51°10.825 2°42.161 101 12.5 101 12.3
2003-03-21 11:32:12 51°10.781 2°42.489 103.3 12.7 104 11.8
2003-03-21 11:33:12 51°10.725 2°42.815 107.3 12.9 107 11
2003-03-21 11:34:12 51°10.641 2°43.13 112.5 13.1 112 9.6
2003-03-21 11:35:12 51°10.589 2°43.452 84.1 12.2 83 8.7
2003-03-21 11:36:12 51°10.649 2°43.764 69.6 12.4 66 8.6
2003-03-21 11:37:12 51°10.758 2°44.048 65.3 12.7 62 8.9
2003-03-21 11:38:12 51°10.861 2°44.347 64.9 12.8 61 9.2
2003-03-21 11:39:12 51°10.964 2°44.642 64.8 12.7 61 9.4
2003-03-21 11:40:12 51°11.064 2°44.936 65.3 12.7 61 9.6
2003-03-21 11:41:12 51°11.164 2°45.229 65 12.6 61 9.9
2003-03-21 11:42:12 51°11.266 2°45.52 65 12.5 61 10.2
2003-03-21 11:43:12 51°11.367 2°45.809 65.5 12.5 61 10.5
2003-03-21 11:44:12 51°11.467 2°46.099 65.3 12.4 61 10.7
2003-03-21 11:45:11 51°11.565 2°46.382 65.3 12.5 61 11
2003-03-21 11:46:12 51°11.665 2°46.676 65.1 12.4 61 10.9
2003-03-21 11:47:12 51°11.764 2°46.968 65.3 12.6 62 11.1
2003-03-21 11:48:12 51°11.863 2°47.263 65.2 12.6 61 11.2
2003-03-21 11:49:13 51°11.965 2°47.56 65.3 12.5 62 11.3
2003-03-21 11:50:12 51°12.064 2°47.848 65.4 12.6 62 11.4
2003-03-21 11:51:12 51°12.164 2°48.143 65.3 12.7 62 11.4
2003-03-21 11:52:12 51°12.263 2°48.439 65.4 12.7 62 11.5
2003-03-21 11:53:12 51°12.37 2°48.733 62.9 12.9 59 11.4
2003-03-21 11:54:12 51°12.479 2°49.026 63.1 12.8 59 11.5
2003-03-21 11:55:12 51°12.588 2°49.318 63.3 12.9 59 11.5
2003-03-21 11:56:12 51°12.694 2°49.61 63.1 12.6 59 11.4
2003-03-21 11:57:12 51°12.801 2°49.896 63.3 12.5 59 11.4
2003-03-21 11:58:12 51°12.909 2°50.181 63.3 12.5 59 11.3
2003-03-21 11:59:13 51°13.016 2°50.469 63.1 12.5 58 11.3
2003-03-21 12:00:11 51°13.117 2°50.742 63.3 12.4 59 11.2
2003-03-21 12:01:11 51°13.224 2°51.025 63.5 12.5 60 11.1
2003-03-21 12:02:11 51°13.329 2°51.308 63.1 12.5 59 11.1
2003-03-21 12:03:11 51°13.346 2°51.528 129.7 6.1 133 11.1
2003-03-21 12:04:11 51°13.265 2°51.537 199.4 4.8 200 10.8
2003-03-21 12:05:11 51°13.216 2°51.455 256.7 4.1 245 10.7
2003-03-21 12:06:11 51°13.209 2°51.358 305.3 3.3 278 10.9
2003-03-21 12:07:11 51°13.228 2°51.288 329 2.9 299 11.1
2003-03-21 12:08:11 51°13.256 2°51.216 326.6 3.4 302 11.4
2003-03-21 12:09:11 51°13.282 2°51.138 324.5 2.7 291 11.7
2003-03-21 12:10:11 51°13.292 2°51.082 323.7 1.8 279 11.9
2003-03-21 12:11:11 51°13.296 2°51.04 328 1.5 273 12
2003-03-21 12:12:11 51°13.301 2°50.993 312.4 2.3 284 12
2003-03-21 12:13:11 51°13.302 2°50.925 281.5 2.3 259 12.1
2003-03-21 12:14:11 51°13.295 2°50.873 295.7 1.8 263 12.2
2003-03-21 12:15:11 51°13.291 2°50.831 307.8 1.6 265 12.2
2003-03-21 12:16:11 51°13.281 2°50.742 237.6 4.8 235 12.4
2003-03-21 12:17:11 51°13.209 2°50.728 150.7 4.4 157 12.2
2003-03-21 12:18:11 51°13.173 2°50.791 111.1 2.8 125 12.1
2003-03-21 12:19:11 51°13.163 2°50.884 76.9 4.6 81 11.9
2003-03-21 12:20:11 51°13.173 2°50.969 70.8 1.9 84 11.8
2003-03-21 12:21:11 51°13.176 2°51.007 65.2 1.2 81 11.7
2003-03-21 12:22:11 51°13.172 2°51.03 59.5 0.4 99 11.8
2003-03-21 12:23:11 51°13.17 2°51.039 50.4 0.5 84 11.8
2003-03-21 12:24:11 51°13.173 2°51.053 45.8 0.3 70 11.8
2003-03-21 12:25:11 51°13.174 2°51.056 44.5 0.2 152 11.9
2003-03-21 12:26:11 51°13.168 2°51.057 47.2 0.4 191 11.9
2003-03-21 12:27:11 51°13.159 2°51.054 59.5 0.4 216 11.9
2003-03-21 12:28:11 51°13.146 2°51.046 77.5 0.9 205 11.9
2003-03-21 12:29:11 51°13.147 2°51.088 59 3.8 61 11.8
2003-03-21 12:30:11 51°13.223 2°51.153 6.6 5.1 2 12
2003-03-21 12:31:11 51°13.28 2°51.114 345.2 3.3 330 12.5
2003-03-21 12:32:11 51°13.317 2°51.081 350.1 2.1 333 12.7
2003-03-21 12:33:11 51°13.339 2°51.056 344.2 1.5 320 12.7
2003-03-21 12:34:11 51°13.353 2°51.037 345.2 1.1 322 12.9
2003-03-21 12:35:11 51°13.367 2°51.023 347.8 0.9 333 13
2003-03-21 12:36:11 51°13.377 2°51.009 345.4 0.8 335 13
2003-03-21 12:37:11 51°13.389 2°50.999 342.9 0.7 329 13.1
2003-03-21 12:38:11 51°13.397 2°50.989 341.3 0.6 327 13.2
2003-03-21 12:39:11 51°13.403 2°50.983 341.8 0.3 333 13.2
2003-03-21 12:40:11 51°13.406 2°50.981 341.9 0.1 327 13.3
2003-03-21 12:41:11 51°13.405 2°50.98 334.6 0.1 187 13.3
2003-03-21 12:42:11 51°13.403 2°50.983 322.6 0.2 163 13.3
2003-03-21 12:43:11 51°13.399 2°50.983 310.4 0.2 156 13.3
2003-03-21 12:44:11 51°13.395 2°50.988 302.6 0.2 148 13.5
2003-03-21 12:45:11 51°13.392 2°50.995 295.9 0.4 141 13.4
2003-03-21 12:46:11 51°13.389 2°51 290.5 0.3 127 13.5
2003-03-21 12:47:11 51°13.387 2°51.006 294.6 0.2 129 13.5
2003-03-21 12:48:11 51°13.385 2°51.009 299.3 0.1 4 13.5
2003-03-21 12:49:11 51°13.383 2°51.019 299.7 0.2 130 13.5
2003-03-21 12:50:11 51°13.382 2°51.025 301.2 0.1 115 13.6
2003-03-21 12:51:11 51°13.382 2°51.033 301.6 0.3 98 13.7
2003-03-21 12:52:11 51°13.381 2°51.043 302.3 0.3 79 13.7
2003-03-21 12:53:11 51°13.383 2°51.052 308.3 0.3 32 13.8
2003-03-21 12:54:11 51°13.39 2°51.059 315 0.4 27 13.8
2003-03-21 12:55:11 51°13.398 2°51.066 317.6 0.8 25 13.8
2003-03-21 12:56:11 51°13.411 2°51.075 323.7 0.9 25 13.9
2003-03-21 12:57:11 51°13.423 2°51.087 322.2 0.8 33 13.9
2003-03-21 12:58:11 51°13.436 2°51.099 319.1 0.9 31 14
2003-03-21 12:59:11 51°13.448 2°51.11 312 0.8 31 14
2003-03-21 13:00:11 51°13.459 2°51.123 303.9 0.7 34 14.1
2003-03-21 13:01:11 51°13.471 2°51.136 300 0.8 26 14.1
2003-03-21 13:02:11 51°13.482 2°51.147 300 0.8 25 14.1
2003-03-21 13:03:11 51°13.533 2°51.115 338.3 6.2 346 13.8
2003-03-21 13:04:11 51°13.667 2°51.215 63.8 11.2 57 10.7
2003-03-21 13:05:12 51°13.726 2°51.572 77.1 14.7 72 13.2
2003-03-21 13:06:12 51°13.817 2°51.932 68.8 15 65 13.4
2003-03-21 13:07:11 51°13.916 2°52.292 71.8 15 67 13.6
2003-03-21 13:08:11 51°14.012 2°52.656 71.8 15 67 13.6
2003-03-21 13:09:11 51°14.11 2°53.024 71.8 14.9 67 13.2
2003-03-21 13:10:11 51°14.21 2°53.387 72.3 14.8 67 12.7
2003-03-21 13:11:11 51°14.304 2°53.749 78.1 14.7 71 12.4
2003-03-21 13:12:11 51°14.337 2°54.122 88.6 14.4 82 12
2003-03-21 13:13:11 51°14.379 2°54.498 88.8 14 81 12.4
2003-03-21 13:14:11 51°14.38 2°54.857 101.6 13.5 94 13
2003-03-21 13:15:11 51°14.308 2°55.173 131.5 12 129 12.8
2003-03-21 13:16:11 51°14.209 2°55.34 150.5 6.8 147 12.4